Time;durP1;ratioP1;P1;durP2;ratioP2;P2;SDS_P1;SDS_P2;PMS_P1;PMS_P2;Temp;Humidity;BMP_temperature;BMP_pressure;BME280_temperature;BME280_humidity;BME280_pressure;Samples;Min_cycle;Max_cycle;Signal;HPM_P1;HPM_P2
2022/03/09 00:00:30;;;;;;;0.20;0.20;;;;;;;;;;5019014;28;20622;-76
2022/03/09 00:02:57;;;;;;;0.20;0.20;;;;;;;;;;5023600;28;20701;-76
2022/03/09 00:05:24;;;;;;;0.20;0.20;;;;;;;;;;5045009;28;20625;-76
2022/03/09 00:07:52;;;;;;;0.20;0.20;;;;;;;;;;5026420;28;20649;-76
2022/03/09 00:10:19;;;;;;;0.20;0.20;;;;;;;;;;5042590;28;20689;-77
2022/03/09 00:12:47;;;;;;;0.20;0.20;;;;;;;;;;5020791;28;20676;-76
2022/03/09 00:15:16;;;;;;;0.20;0.20;;;;;;;;;;5025622;28;20653;-76
2022/03/09 00:17:43;;;;;;;0.20;0.20;;;;;;;;;;5043824;28;20629;-77
2022/03/09 00:20:11;;;;;;;0.20;0.20;;;;;;;;;;5027248;28;20626;-77
2022/03/09 00:22:39;;;;;;;0.20;0.20;;;;;;;;;;5025803;28;20671;-77
2022/03/09 00:25:06;;;;;;;0.10;0.10;;;;;;;;;;5020720;28;20641;-76
2022/03/09 00:27:34;;;;;;;0.20;0.20;;;;;;;;;;5038779;28;20610;-77
2022/03/09 00:30:02;;;;;;;0.20;0.20;;;;;;;;;;5026126;28;20628;-77
2022/03/09 00:32:31;;;;;;;0.20;0.20;;;;;;;;;;5026068;28;20653;-76
2022/03/09 00:34:58;;;;;;;0.20;0.20;;;;;;;;;;5042292;28;20614;-76
2022/03/09 00:37:25;;;;;;;0.20;0.20;;;;;;;;;;5044866;28;21201;-77
2022/03/09 00:39:53;;;;;;;0.10;0.10;;;;;;;;;;5026379;28;20707;-77
2022/03/09 00:42:20;;;;;;;0.20;0.20;;;;;;;;;;5026413;28;20618;-76
2022/03/09 00:44:48;;;;;;;0.10;0.10;;;;;;;;;;5028620;28;20626;-76
2022/03/09 00:47:15;;;;;;;0.10;0.10;;;;;;;;;;5046352;28;20614;-76
2022/03/09 00:49:43;;;;;;;0.20;0.20;;;;;;;;;;5027679;28;20622;-77
2022/03/09 00:52:11;;;;;;;0.10;0.10;;;;;;;;;;5022915;28;20665;-77
2022/03/09 00:54:39;;;;;;;0.20;0.20;;;;;;;;;;5025756;28;20635;-77
2022/03/09 00:57:06;;;;;;;0.10;0.10;;;;;;;;;;5024870;28;20645;-76
2022/03/09 00:59:33;;;;;;;0.10;0.10;;;;;;;;;;5026236;28;20721;-76
2022/03/09 01:02:01;;;;;;;0.20;0.20;;;;;;;;;;5025158;28;20632;-76
2022/03/09 01:04:28;;;;;;;0.20;0.20;;;;;;;;;;5041788;28;20649;-78
2022/03/09 01:06:57;;;;;;;0.20;0.20;;;;;;;;;;5022584;28;20633;-77
2022/03/09 01:09:24;;;;;;;0.20;0.20;;;;;;;;;;5022000;28;20736;-77
2022/03/09 01:11:51;;;;;;;0.20;0.20;;;;;;;;;;5020334;28;21297;-77
2022/03/09 01:14:19;;;;;;;0.20;0.20;;;;;;;;;;5026186;28;20219;-76
2022/03/09 01:16:46;;;;;;;0.17;0.17;;;;;;;;;;5018239;28;20649;-76
2022/03/09 01:19:14;;;;;;;0.20;0.20;;;;;;;;;;5019013;28;20626;-76
2022/03/09 01:21:42;;;;;;;0.20;0.20;;;;;;;;;;5024949;28;20192;-77
2022/03/09 01:24:11;;;;;;;0.20;0.20;;;;;;;;;;5025689;28;20665;-76
2022/03/09 01:26:38;;;;;;;0.20;0.20;;;;;;;;;;5021864;28;20634;-77
2022/03/09 01:29:06;;;;;;;0.20;0.20;;;;;;;;;;5021534;28;20204;-76
2022/03/09 01:31:34;;;;;;;0.20;0.20;;;;;;;;;;5021409;28;20602;-78
2022/03/09 01:34:01;;;;;;;0.10;0.10;;;;;;;;;;5023034;28;20287;-76
2022/03/09 01:36:29;;;;;;;0.10;0.10;;;;;;;;;;5024571;28;20262;-77
2022/03/09 01:38:56;;;;;;;0.20;0.20;;;;;;;;;;5028172;28;20214;-76
2022/03/09 01:41:25;;;;;;;0.20;0.20;;;0.30;99.90;;;;;;5038703;28;20625;-77
2022/03/09 01:44:06;;;;;;;0.20;0.20;;;0.20;99.90;;;;;;5024707;28;20654;-76
2022/03/09 01:46:33;;;;;;;0.20;0.20;;;0.20;99.90;;;;;;5014366;28;20206;-77
2022/03/09 01:49:00;;;;;;;0.20;0.20;;;0.20;99.90;;;;;;5023380;28;20195;-77
2022/03/09 01:51:27;;;;;;;0.20;0.20;;;0.20;99.90;;;;;;5022119;28;20227;-76
2022/03/09 01:53:54;;;;;;;0.10;0.10;;;0.20;99.90;;;;;;5020021;28;20719;-77
2022/03/09 01:56:22;;;;;;;0.20;0.20;;;0.20;99.90;;;;;;5026769;28;20196;-76
2022/03/09 01:58:50;;;;;;;0.20;0.20;;;0.10;99.90;;;;;;5030225;28;20730;-77
2022/03/09 02:01:17;;;;;;;0.20;0.20;;;0.10;99.90;;;;;;5045960;28;20199;-77
2022/03/09 02:03:44;;;;;;;0.10;0.10;;;0.00;99.90;;;;;;5047005;28;20724;-76
2022/03/09 02:06:11;;;;;;;0.20;0.20;;;0.00;99.90;;;;;;5040900;28;20200;-77
2022/03/09 02:11:33;;;;;;;0.20;0.20;;;-0.10;99.90;;;;;;5004877;28;20291;-77
2022/03/09 02:14:01;;;;;;;0.20;0.20;;;-0.10;99.90;;;;;;5047409;28;20219;-77
2022/03/09 02:16:28;;;;;;;0.20;0.20;;;-0.10;99.90;;;;;;5042535;28;20617;-77
2022/03/09 02:18:56;;;;;;;0.20;0.20;;;-0.20;99.90;;;;;;5038564;28;20214;-77
2022/03/09 02:21:29;;;;;;;0.20;0.20;;;-0.20;99.90;;;;;;5042372;28;20219;-77
2022/03/09 02:23:57;;;;;;;0.20;0.20;;;-0.20;99.90;;;;;;5028620;28;20305;-77
2022/03/09 02:26:24;;;;;;;0.20;0.20;;;-0.20;99.90;;;;;;5021395;28;20207;-77
2022/03/09 02:28:51;;;;;;;0.20;0.20;;;-0.30;99.90;;;;;;5027325;28;20246;-77
2022/03/09 02:31:18;;;;;;;0.20;0.20;;;-0.30;99.90;;;;;;5042507;28;20211;-77
2022/03/09 02:33:46;;;;;;;0.20;0.20;;;-0.30;99.90;;;;;;5041091;28;20261;-76
2022/03/09 02:36:13;;;;;;;0.20;0.20;;;-0.30;99.90;;;;;;5028733;28;20286;-76
2022/03/09 02:38:40;;;;;;;0.20;0.20;;;-0.30;99.90;;;;;;5023451;28;20215;-77
2022/03/09 02:41:08;;;;;;;0.20;0.20;;;-0.30;99.90;;;;;;5023991;28;20282;-77
2022/03/09 02:43:35;;;;;;;0.20;0.20;;;-0.30;99.90;;;;;;5040207;28;20295;-77
2022/03/09 02:46:02;;;;;;;0.20;0.20;;;-0.30;99.90;;;;;;5023578;28;20195;-77
2022/03/09 02:48:30;;;;;;;0.20;0.20;;;-0.40;99.90;;;;;;5028753;28;20226;-76
2022/03/09 02:50:57;;;;;;;0.20;0.20;;;-0.50;99.90;;;;;;5022770;28;20224;-77
2022/03/09 02:53:24;;;;;;;0.20;0.20;;;-0.60;99.90;;;;;;5044150;28;20226;-77
2022/03/09 02:55:51;;;;;;;0.20;0.20;;;-0.60;99.90;;;;;;5028941;28;20222;-77
2022/03/09 02:58:19;;;;;;;0.20;0.20;;;-0.60;99.90;;;;;;5027671;28;20230;-77
2022/03/09 03:00:46;;;;;;;0.20;0.20;;;-0.60;99.90;;;;;;5023864;28;20203;-77
2022/03/09 03:03:13;;;;;;;0.20;0.20;;;-0.60;99.90;;;;;;5028502;28;20223;-77
2022/03/09 03:05:40;;;;;;;0.20;0.20;;;-0.60;99.90;;;;;;5026272;28;20199;-76
2022/03/09 03:08:07;;;;;;;0.20;0.20;;;-0.60;99.90;;;;;;5029205;28;20289;-77
2022/03/09 03:10:34;;;;;;;0.25;0.25;;;-0.60;99.90;;;;;;5027561;28;20223;-77
2022/03/09 03:13:01;;;;;;;0.25;0.25;;;-0.60;99.90;;;;;;5025592;28;20322;-76
2022/03/09 03:15:30;;;;;;;0.20;0.20;;;-0.60;99.90;;;;;;5024220;28;20195;-77
2022/03/09 03:17:56;;;;;;;0.20;0.20;;;-0.70;99.90;;;;;;5024431;28;20208;-77
2022/03/09 03:20:23;;;;;;;0.22;0.22;;;-0.70;99.90;;;;;;5040878;28;20203;-77
2022/03/09 03:22:50;;;;;;;0.20;0.20;;;-0.70;99.90;;;;;;5026282;28;20227;-77
2022/03/09 03:25:17;;;;;;;0.20;0.20;;;-0.70;99.90;;;;;;5045817;28;20199;-76
2022/03/09 03:27:44;;;;;;;0.20;0.20;;;-0.70;99.90;;;;;;5027364;28;20231;-77
2022/03/09 03:30:12;;;;;;;0.30;0.30;;;-0.70;99.90;;;;;;5047774;28;20210;-76
2022/03/09 03:32:40;;;;;;;0.30;0.30;;;-0.70;99.90;;;;;;5045226;28;20219;-77
2022/03/09 03:35:08;;;;;;;0.20;0.20;;;-0.70;99.90;;;;;;5025814;28;20207;-76
2022/03/09 03:37:36;;;;;;;0.20;0.20;;;-0.70;99.90;;;;;;5028160;28;20210;-77
2022/03/09 03:40:03;;;;;;;0.20;0.20;;;-0.70;99.90;;;;;;5047294;28;20238;-76
2022/03/09 03:42:30;;;;;;;0.20;0.20;;;-0.70;99.90;;;;;;5023612;28;20211;-77
2022/03/09 03:44:58;;;;;;;0.20;0.20;;;;;;;;;;5024778;28;20203;-77
2022/03/09 03:47:25;;;;;;;0.20;0.20;;;;;;;;;;5030024;28;20302;-76
2022/03/09 03:49:54;;;;;;;0.20;0.20;;;;;;;;;;5021067;28;20200;-76
2022/03/09 03:52:21;;;;;;;0.20;0.20;;;;;;;;;;5021599;28;20237;-76
2022/03/09 03:54:49;;;;;;;0.20;0.20;;;;;;;;;;5043717;28;20703;-76
2022/03/09 03:57:16;;;;;;;0.20;0.20;;;;;;;;;;5041732;28;20290;-77
2022/03/09 03:59:43;;;;;;;0.30;0.30;;;;;;;;;;5041222;28;20207;-77
2022/03/09 04:02:10;;;;;;;0.20;0.20;;;;;;;;;;5021738;28;20250;-76
2022/03/09 04:04:38;;;;;;;0.20;0.20;;;-0.90;99.90;;;;;;5018287;28;20208;-77
2022/03/09 04:07:06;;;;;;;0.30;0.30;;;-1.10;99.90;;;;;;5024982;28;20286;-76
2022/03/09 04:09:33;;;;;;;0.22;0.22;;;-1.10;99.90;;;;;;5024098;28;20203;-76
2022/03/09 04:12:01;;;;;;;0.30;0.30;;;;;;;;;;5027216;28;20290;-76
2022/03/09 04:14:28;;;;;;;0.20;0.20;;;;;;;;;;5025557;28;20218;-77
2022/03/09 04:16:56;;;;;;;0.20;0.20;;;;;;;;;;5025939;28;20333;-77
2022/03/09 04:19:23;;;;;;;0.40;0.40;;;;;;;;;;5026487;28;20208;-77
2022/03/09 04:21:50;;;;;;;0.22;0.22;;;;;;;;;;5026318;28;20222;-76
2022/03/09 04:24:19;;;;;;;0.20;0.20;;;-1.20;99.90;;;;;;5042866;28;20331;-77
2022/03/09 04:26:46;;;;;;;0.30;0.30;;;-1.60;99.90;;;;;;5025746;28;20203;-76
2022/03/09 04:29:13;;;;;;;0.20;0.20;;;-1.60;99.90;;;;;;5026744;28;20214;-76
2022/03/09 04:31:41;;;;;;;0.20;0.20;;;-1.60;99.90;;;;;;5025497;28;20226;-77
2022/03/09 04:34:08;;;;;;;0.20;0.20;;;-1.50;99.90;;;;;;5025990;28;20346;-77
2022/03/09 04:36:36;;;;;;;0.20;0.20;;;-1.50;99.90;;;;;;5038419;28;20192;-77
2022/03/09 04:39:05;;;;;;;0.20;0.20;;;-1.40;99.90;;;;;;5023257;28;20203;-77
2022/03/09 04:41:34;;;;;;;0.20;0.20;;;-1.50;99.90;;;;;;5041447;28;20218;-76
2022/03/09 04:44:01;;;;;;;0.22;0.22;;;-1.50;99.90;;;;;;5039854;28;20301;-77
2022/03/09 04:46:29;;;;;;;0.20;0.20;;;-1.50;99.90;;;;;;5023568;28;20206;-77
2022/03/09 04:48:56;;;;;;;0.20;0.20;;;-1.50;99.90;;;;;;5024421;28;20206;-76
2022/03/09 04:51:23;;;;;;;0.20;0.20;;;-1.50;99.90;;;;;;5026242;28;20207;-76
2022/03/09 04:53:50;;;;;;;0.20;0.20;;;-1.50;99.90;;;;;;5026435;28;20258;-77
2022/03/09 04:56:17;;;;;;;0.20;0.20;;;-1.40;99.90;;;;;;5023685;28;20203;-77
2022/03/09 04:58:46;;;;;;;0.20;0.20;;;-1.40;99.90;;;;;;5024866;28;20203;-76
2022/03/09 05:01:13;;;;;;;0.25;0.25;;;-1.40;99.90;;;;;;5023017;28;20227;-77
2022/03/09 05:03:40;;;;;;;0.20;0.20;;;-1.40;99.90;;;;;;5026079;28;20247;-77
2022/03/09 05:06:07;;;;;;;0.20;0.20;;;-1.40;99.90;;;;;;5023599;28;20261;-77
2022/03/09 05:08:34;;;;;;;0.25;0.25;;;-1.40;99.90;;;;;;5024925;28;20207;-78
2022/03/09 05:11:01;;;;;;;0.20;0.20;;;-1.40;99.90;;;;;;5026784;28;20295;-76
2022/03/09 05:13:30;;;;;;;0.20;0.20;;;-1.40;99.90;;;;;;5041172;28;20237;-79
2022/03/09 05:15:59;;;;;;;0.30;0.30;;;-1.40;99.90;;;;;;5026889;28;20214;-76
2022/03/09 05:18:26;;;;;;;0.20;0.20;;;-1.40;99.90;;;;;;5026364;28;20210;-75
2022/03/09 05:20:53;;;;;;;0.20;0.20;;;-1.30;99.90;;;;;;5040622;28;20195;-75
2022/03/09 05:23:21;;;;;;;0.30;0.30;;;-1.30;99.90;;;;;;5025274;28;20227;-75
2022/03/09 05:25:47;;;;;;;0.30;0.30;;;-1.30;99.90;;;;;;5018931;28;20294;-76
2022/03/09 05:28:14;;;;;;;0.20;0.20;;;-1.30;99.90;;;;;;5041721;28;20678;-75
2022/03/09 05:30:42;;;;;;;0.20;0.20;;;-1.20;99.90;;;;;;5021514;28;20294;-76
2022/03/09 05:33:10;;;;;;;0.20;0.20;;;-1.20;99.90;;;;;;5026050;28;20258;-77
2022/03/09 05:35:38;;;;;;;0.20;0.20;;;-1.20;99.90;;;;;;5025959;28;20200;-77
2022/03/09 05:38:06;;;;;;;0.20;0.20;;;-1.20;99.90;;;;;;5030413;28;20203;-81
2022/03/09 05:40:33;;;;;;;0.30;0.30;;;-1.30;99.90;;;;;;5031747;28;20196;-79
2022/03/09 05:43:00;;;;;;;0.30;0.30;;;-1.30;99.90;;;;;;5030994;28;20226;-79
2022/03/09 05:45:27;;;;;;;0.10;0.10;;;-1.30;99.90;;;;;;5020587;28;20196;-81
2022/03/09 05:47:54;;;;;;;0.20;0.20;;;-1.30;99.90;;;;;;5045701;28;20271;-79
2022/03/09 05:50:23;;;;;;;0.20;0.20;;;-1.30;99.90;;;;;;5032039;28;20203;-79
2022/03/09 05:52:50;;;;;;;0.30;0.30;;;-1.30;99.90;;;;;;5031413;28;20226;-78
2022/03/09 05:55:17;;;;;;;0.20;0.20;;;-1.30;99.90;;;;;;5031032;28;20280;-78
2022/03/09 05:57:45;;;;;;;0.20;0.20;;;-1.20;99.90;;;;;;5030243;28;20222;-82
2022/03/09 06:00:12;;;;;;;0.20;0.20;;;-1.20;99.90;;;;;;5029392;28;20277;-80
2022/03/09 06:02:40;;;;;;;0.30;0.30;;;-1.20;99.90;;;;;;5031799;28;20216;-80
2022/03/09 06:05:08;;;;;;;0.20;0.20;;;-1.20;99.90;;;;;;5033980;28;20207;-79
2022/03/09 06:07:37;;;;;;;0.20;0.20;;;-1.20;99.90;;;;;;5047778;28;20199;-78
2022/03/09 06:10:05;;;;;;;0.30;0.30;;;-1.20;99.90;;;;;;5032315;28;20275;-78
2022/03/09 06:12:32;;;;;;;0.30;0.30;;;-1.20;99.90;;;;;;5049877;28;20223;-78
2022/03/09 06:14:59;;;;;;;0.30;0.30;;;-1.10;99.90;;;;;;5034298;28;20199;-78
2022/03/09 06:17:26;;;;;;;0.20;0.20;;;-1.00;99.90;;;;;;5051861;28;20203;-79
2022/03/09 06:19:53;;;;;;;0.30;0.30;;;-0.90;99.90;;;;;;5029793;28;20199;-80
2022/03/09 06:22:20;;;;;;;0.30;0.30;;;-0.80;99.90;;;;;;5033823;28;20206;-79
2022/03/09 06:24:49;;;;;;;0.20;0.20;;;-0.60;99.90;;;;;;5035185;28;20234;-80
2022/03/09 06:27:18;;;;;;;0.20;0.20;;;-0.20;99.90;;;;;;5030504;28;20295;-81
2022/03/09 06:29:45;;;;;;;0.25;0.25;;;-0.20;99.90;;;;;;5034192;28;20200;-78
2022/03/09 06:32:12;;;;;;;0.30;0.30;;;-0.10;99.90;;;;;;5049305;28;20207;-82
2022/03/09 06:34:39;;;;;;;0.30;0.30;;;0.10;99.90;;;;;;5029907;28;20204;-81
2022/03/09 06:37:07;;;;;;;0.20;0.20;;;0.20;99.90;;;;;;5032929;28;20203;-80
2022/03/09 06:39:34;;;;;;;0.25;0.25;;;0.30;99.90;;;;;;5028337;28;20222;-81
2022/03/09 06:42:02;;;;;;;0.20;0.20;;;0.40;99.90;;;;;;5025379;28;20222;-81
2022/03/09 06:44:31;;;;;;;0.20;0.20;;;0.50;99.90;;;;;;5041876;28;20247;-82
2022/03/09 06:46:58;;;;;;;0.20;0.20;;;0.60;99.90;;;;;;5029453;28;20203;-81
2022/03/09 06:49:26;;;;;;;0.20;0.20;;;0.80;99.90;;;;;;5029792;28;20203;-82
2022/03/09 06:51:53;;;;;;;0.20;0.20;;;0.90;99.90;;;;;;5027687;28;20204;-81
2022/03/09 06:54:21;;;;;;;0.20;0.20;;;1.00;99.90;;;;;;5044844;28;20292;-82
2022/03/09 06:56:51;;;;;;;0.20;0.20;;;1.00;99.90;;;;;;5027882;28;20203;-82
2022/03/09 06:59:20;;;;;;;0.20;0.20;;;1.10;99.90;;;;;;5045798;28;20214;-82
2022/03/09 07:01:47;;;;;;;0.20;0.20;;;1.20;99.90;;;;;;5027816;28;20207;-82
2022/03/09 07:04:15;;;;;;;0.20;0.20;;;1.40;99.90;;;;;;5027693;28;20219;-82
2022/03/09 07:06:43;;;;;;;0.20;0.20;;;1.50;99.90;;;;;;5027242;28;20729;-81
2022/03/09 07:09:10;;;;;;;0.20;0.20;;;1.60;99.90;;;;;;5042715;28;20298;-82
2022/03/09 07:11:37;;;;;;;0.20;0.20;;;1.80;99.90;;;;;;5028158;28;20203;-82
2022/03/09 07:14:04;;;;;;;0.20;0.20;;;1.90;99.90;;;;;;5021744;28;20249;-81
2022/03/09 07:16:33;;;;;;;0.20;0.20;;;2.20;99.90;;;;;;5024941;28;20625;-82
2022/03/09 07:19:00;;;;;;;0.20;0.20;;;2.40;99.90;;;;;;5026340;28;20199;-81
2022/03/09 07:21:27;;;;;;;0.20;0.20;;;2.60;99.90;;;;;;5028925;28;20622;-83
2022/03/09 07:23:56;;;;;;;0.20;0.20;;;2.80;99.90;;;;;;5028874;28;20646;-83
2022/03/09 07:26:23;;;;;;;0.20;0.20;;;3.00;99.90;;;;;;5021981;28;20648;-83
2022/03/09 07:28:50;;;;;;;0.20;0.20;;;3.20;99.90;;;;;;5030570;28;20665;-82
2022/03/09 07:31:17;;;;;;;0.20;0.20;;;3.40;99.90;;;;;;5049058;28;20629;-83
2022/03/09 07:33:46;;;;;;;0.20;0.20;;;3.60;99.90;;;;;;5044476;28;20768;-83
2022/03/09 07:36:13;;;;;;;0.20;0.20;;;3.80;99.90;;;;;;5031155;28;20627;-83
2022/03/09 07:38:41;;;;;;;0.20;0.20;;;;;;;;;;5025902;28;20660;-83
2022/03/09 07:41:09;;;;;;;0.20;0.20;;;;;;;;;;5050478;28;20625;-84
2022/03/09 07:43:36;;;;;;;0.20;0.20;;;;;;;;;;5046568;28;20675;-83
2022/03/09 07:46:04;;;;;;;0.20;0.20;;;;;;;;;;5029637;28;20656;-83
2022/03/09 07:48:31;;;;;;;0.20;0.20;;;5.10;99.90;;;;;;5029974;28;20618;-83
2022/03/09 07:51:00;;;;;;;0.10;0.10;;;;;;;;;;5029307;28;20725;-83
2022/03/09 07:53:28;;;;;;;0.20;0.20;;;;;;;;;;5028458;28;20661;-83
2022/03/09 07:55:55;;;;;;;0.20;0.20;;;;;;;;;;5043483;28;20635;-82
2022/03/09 07:58:24;;;;;;;0.20;0.20;;;;;;;;;;5026776;28;20602;-82
2022/03/09 08:00:52;;;;;;;0.20;0.20;;;;;;;;;;5042073;28;20625;-82
2022/03/09 08:03:20;;;;;;;0.20;0.20;;;;;;;;;;5044581;28;20656;-82
2022/03/09 08:05:48;;;;;;;0.20;0.20;;;;;;;;;;5022246;28;20733;-81
2022/03/09 08:08:17;;;;;;;0.20;0.20;;;;;;;;;;5030220;28;20618;-82
2022/03/09 08:10:44;;;;;;;0.10;0.10;;;6.40;99.90;;;;;;5026532;28;20618;-82
2022/03/09 08:13:11;;;;;;;0.10;0.10;;;;;;;;;;5026421;28;20658;-83
2022/03/09 08:15:39;;;;;;;0.20;0.20;;;6.50;99.90;;;;;;5023446;28;20626;-82
2022/03/09 08:18:06;;;;;;;0.20;0.20;;;;;;;;;;5046067;28;20614;-82
2022/03/09 08:20:35;;;;;;;0.20;0.20;;;;;;;;;;5027223;28;20691;-82
2022/03/09 08:23:02;;;;;;;0.10;0.10;;;;;;;;;;5025680;28;20661;-82
2022/03/09 08:25:32;;;;;;;0.20;0.20;;;6.70;99.90;;;;;;5025169;28;20626;-82
2022/03/09 08:28:00;;;;;;;0.17;0.17;;;7.30;99.90;;;;;;5028996;28;20636;-82
2022/03/09 08:30:28;;;;;;;0.20;0.20;;;7.30;99.90;;;;;;5049751;28;20653;-82
2022/03/09 08:32:56;;;;;;;0.20;0.20;;;7.50;99.90;;;;;;5043834;28;20704;-82
2022/03/09 08:35:23;;;;;;;0.20;0.20;;;;;;;;;;5029524;28;20629;-82
2022/03/09 08:37:50;;;;;;;0.10;0.10;;;;;;;;;;5049447;28;20684;-82
2022/03/09 08:40:17;;;;;;;0.20;0.20;;;;;;;;;;5027281;28;20661;-82
2022/03/09 08:42:47;;;;;;;0.20;0.20;;;7.50;99.90;;;;;;5028142;28;20653;-82
2022/03/09 08:45:15;;;;;;;0.10;0.10;;;8.00;99.90;;;;;;5030289;28;20622;-81
2022/03/09 08:47:42;;;;;;;0.10;0.10;;;8.20;99.90;;;;;;5044341;28;20641;-81
2022/03/09 08:50:10;;;;;;;0.10;0.10;;;8.20;99.90;;;;;;5027363;28;20783;-82
2022/03/09 08:52:37;;;;;;;0.10;0.10;;;8.30;99.90;;;;;;5044023;28;21234;-81
2022/03/09 08:55:05;;;;;;;0.17;0.17;;;8.30;99.90;;;;;;5025562;28;20756;-81
2022/03/09 08:57:32;;;;;;;0.20;0.20;;;8.40;99.90;;;;;;5028933;28;20630;-81
2022/03/09 09:00:03;;;;;;;0.20;0.20;;;;;;;;;;5022416;28;20641;-81
2022/03/09 09:02:31;;;;;;;0.10;0.10;;;8.50;99.90;;;;;;5020529;28;20650;-81
2022/03/09 09:04:58;;;;;;;0.20;0.20;;;8.70;99.90;;;;;;5028573;28;20626;-81
2022/03/09 09:07:26;;;;;;;0.10;0.10;;;8.60;99.90;;;;;;5027558;28;20634;-81
2022/03/09 09:09:53;;;;;;;0.20;0.20;;;8.70;99.90;;;;;;5047458;28;20653;-82
2022/03/09 09:12:20;;;;;;;0.10;0.10;;;8.70;99.90;;;;;;5020852;28;20733;-81
2022/03/09 09:14:47;;;;;;;0.10;0.10;;;8.90;99.90;;;;;;5044841;28;20760;-81
2022/03/09 09:17:16;;;;;;;0.10;0.10;;;9.10;99.90;;;;;;5041424;28;20633;-81
2022/03/09 09:19:44;;;;;;;0.10;0.10;;;9.10;99.90;;;;;;5027888;28;20625;-81
2022/03/09 09:22:11;;;;;;;0.10;0.10;;;9.20;99.90;;;;;;5025248;28;20622;-81
2022/03/09 09:24:38;;;;;;;0.10;0.10;;;;;;;;;;5043924;28;20626;-81
2022/03/09 09:27:06;;;;;;;0.10;0.10;;;;;;;;;;5027864;28;20688;-82
2022/03/09 09:29:33;;;;;;;0.10;0.10;;;;;;;;;;5022847;28;20637;-81
2022/03/09 09:32:01;;;;;;;0.10;0.10;;;;;;;;;;5028086;28;20626;-80
2022/03/09 09:34:30;;;;;;;0.10;0.10;;;;;;;;;;5023153;28;21104;-81
2022/03/09 09:36:59;;;;;;;0.10;0.10;;;;;;;;;;5045073;28;20680;-80
2022/03/09 09:39:26;;;;;;;0.10;0.10;;;;;;;;;;5025496;28;20661;-81
2022/03/09 09:41:54;;;;;;;0.10;0.10;;;;;;;;;;5044039;28;20633;-81
2022/03/09 09:44:23;;;;;;;0.10;0.10;;;;;;;;;;5026459;28;20650;-81
2022/03/09 09:46:51;;;;;;;0.10;0.10;;;;;;;;;;5024276;28;20784;-81
2022/03/09 09:49:23;;;;;;;0.10;0.10;;;;;;;;;;5027662;28;20653;-81
2022/03/09 09:51:53;;;;;;;0.10;0.10;;;;;;;;;;5024450;28;20653;-81
2022/03/09 09:54:21;;;;;;;0.20;0.20;;;;;;;;;;5024774;28;20762;-80
2022/03/09 09:56:48;;;;;;;0.20;0.20;;;;;;;;;;5045620;28;20630;-81
2022/03/09 09:59:16;;;;;;;0.10;0.10;;;;;;;;;;5043224;28;20645;-81
2022/03/09 10:01:43;;;;;;;0.10;0.10;;;;;;;;;;5026927;28;20625;-81
2022/03/09 10:04:11;;;;;;;0.10;0.10;;;;;;;;;;5044815;28;20669;-81
2022/03/09 10:06:38;;;;;;;0.10;0.10;;;;;;;;;;5029099;28;20625;-81
2022/03/09 10:09:07;;;;;;;0.10;0.10;;;;;;;;;;5045522;28;20617;-82
2022/03/09 10:11:51;;;;;;;0.10;0.10;;;;;;;;;;5046025;28;20657;-81
2022/03/09 10:14:20;;;;;;;0.10;0.10;;;;;;;;;;5040200;28;20674;-81
2022/03/09 10:17:04;;;;;;;0.10;0.10;;;;;;;;;;5023879;28;20779;-82
2022/03/09 10:19:33;;;;;;;0.10;0.10;;;9.30;99.90;;;;;;5063105;28;20601;-82
2022/03/09 10:22:21;;;;;;;0.10;0.10;;;11.30;99.90;;;;;;5036514;28;20741;-81
2022/03/09 10:24:51;;;;;;;0.10;0.10;;;11.40;99.90;;;;;;5030481;28;20306;-81
2022/03/09 10:27:41;;;;;;;0.10;0.10;;;11.40;99.90;;;;;;5042972;28;20617;-81
2022/03/09 10:30:10;;;;;;;0.10;0.10;;;11.40;99.90;;;;;;5048683;28;20211;-81
2022/03/09 10:32:49;;;;;;;0.10;0.10;;;11.50;99.90;;;;;;5029277;28;20220;-81
2022/03/09 10:35:18;;;;;;;0.10;0.10;;;11.60;99.90;;;;;;5045654;28;20214;-82
2022/03/09 10:37:46;;;;;;;0.10;0.10;;;;;;;;;;5032219;28;20215;-80
2022/03/09 10:40:17;;;;;;;0.10;0.10;;;;;;;;;;5027003;28;20608;-81
2022/03/09 10:42:44;;;;;;;0.10;0.10;;;;;;;;;;5031162;28;20227;-81
2022/03/09 10:45:13;;;;;;;0.10;0.10;;;;;;;;;;5028343;28;20207;-81
2022/03/09 10:47:41;;;;;;;0.20;0.20;;;;;;;;;;5046683;28;20199;-81
2022/03/09 10:50:10;;;;;;;0.10;0.10;;;;;;;;;;5030632;28;20203;-81
2022/03/09 10:52:45;;;;;;;0.10;0.10;;;;;;;;;;5045926;28;20243;-81
2022/03/09 10:55:30;;;;;;;0.10;0.10;;;;;;;;;;5027248;28;20230;-81
2022/03/09 10:58:15;;;;;;;0.10;0.10;;;;;;;;;;5030671;28;20310;-81
2022/03/09 11:00:45;;;;;;;0.10;0.10;;;;;;;;;;5027845;28;20685;-81
2022/03/09 11:03:14;;;;;;;0.10;0.10;;;;;;;;;;5028152;28;20326;-81
2022/03/09 11:05:50;;;;;;;0.10;0.10;;;;;;;;;;5023587;28;20227;-81
2022/03/09 11:08:18;;;;;;;0.10;0.10;;;;;;;;;;5033710;28;20199;-81
2022/03/09 11:10:47;;;;;;;0.10;0.10;;;;;;;;;;5047486;28;20262;-81
2022/03/09 11:13:15;;;;;;;0.10;0.10;;;;;;;;;;5036051;28;20230;-81
2022/03/09 11:15:43;;;;;;;0.10;0.10;;;;;;;;;;5032857;28;20203;-81
2022/03/09 11:18:13;;;;;;;0.10;0.10;;;13.20;99.90;;;;;;5031360;28;20215;-81
2022/03/09 11:20:41;;;;;;;0.10;0.10;;;;;;;;;;5049291;28;20199;-81
2022/03/09 11:23:11;;;;;;;0.10;0.10;;;13.60;99.90;;;;;;5047383;28;20230;-81
2022/03/09 11:25:39;;;;;;;0.10;0.10;;;;;;;;;;5048498;28;20195;-81
2022/03/09 11:28:08;;;;;;;0.10;0.10;;;13.80;99.90;;;;;;5028370;28;20203;-81
2022/03/09 11:30:36;;;;;;;0.10;0.10;;;13.70;99.90;;;;;;5030234;28;20207;-81
2022/03/09 11:33:05;;;;;;;0.10;0.10;;;13.60;99.90;;;;;;5028618;28;20222;-81
2022/03/09 11:35:39;;;;;;;0.10;0.10;;;13.40;99.90;;;;;;5029487;28;20247;-81
2022/03/09 11:38:38;;;;;;;0.10;0.10;;;13.40;99.90;;;;;;5028917;28;20223;-81
2022/03/09 11:41:20;;;;;;;0.10;0.10;;;13.30;99.90;;;;;;5025558;28;20191;-81
2022/03/09 11:43:47;;;;;;;0.10;0.10;;;13.40;99.90;;;;;;5047266;28;20219;-81
2022/03/09 11:46:16;;;;;;;0.10;0.10;;;13.20;99.90;;;;;;5047382;28;20207;-81
2022/03/09 11:48:54;;;;;;;0.10;0.10;;;13.10;99.90;;;;;;5030100;28;20226;-81
2022/03/09 11:51:24;;;;;;;0.10;0.10;;;13.40;99.90;;;;;;5030261;28;20210;-81
2022/03/09 11:53:54;;;;;;;0.10;0.10;;;13.50;99.90;;;;;;5030818;28;20294;-81
2022/03/09 11:56:27;;;;;;;0.10;0.10;;;13.50;99.90;;;;;;5029103;28;20203;-81
2022/03/09 11:59:26;;;;;;;0.10;0.10;;;13.40;99.90;;;;;;5041065;28;20217;-81
2022/03/09 12:02:12;;;;;;;0.10;0.10;;;13.20;99.90;;;;;;5050952;28;20203;-81
2022/03/09 12:04:50;;;;;;;0.10;0.10;;;13.10;99.90;;;;;;5046012;28;20203;-81
2022/03/09 12:07:56;;;;;;;0.10;0.10;;;13.10;99.90;;;;;;5040383;28;20203;-82
2022/03/09 12:10:47;;;;;;;0.10;0.10;;;13.00;99.90;;;;;;5025099;28;20230;-81
2022/03/09 12:13:17;;;;;;;0.00;0.00;;;13.30;99.90;;;;;;5029369;28;20246;-82
2022/03/09 12:16:19;;;;;;;0.10;0.10;;;13.40;99.90;;;;;;5045026;28;20211;-82
2022/03/09 12:19:08;;;;;;;0.10;0.10;;;13.50;99.90;;;;;;5046350;28;20203;-82
2022/03/09 12:22:01;;;;;;;0.07;0.07;;;13.40;99.90;;;;;;5041573;28;20203;-82
2022/03/09 12:24:33;;;;;;;0.10;0.10;;;13.40;99.90;;;;;;5025463;28;20219;-81
2022/03/09 12:27:01;;;;;;;0.00;0.00;;;13.40;99.90;;;;;;5026219;28;20223;-82
2022/03/09 12:29:39;;;;;;;0.10;0.10;;;13.50;99.90;;;;;;5037339;28;20196;-82
2022/03/09 12:32:13;;;;;;;0.10;0.10;;;13.30;99.90;;;;;;5024783;28;20223;-81
2022/03/09 12:34:43;;;;;;;0.10;0.10;;;13.30;99.90;;;;;;5028568;28;20211;-82
2022/03/09 12:37:12;;;;;;;0.10;0.10;;;13.10;99.90;;;;;;5028274;28;20207;-82
2022/03/09 12:39:40;;;;;;;0.10;0.10;;;13.10;99.90;;;;;;5023516;28;20208;-82
2022/03/09 12:42:08;;;;;;;0.10;0.10;;;13.20;99.90;;;;;;5029556;28;20247;-82
2022/03/09 12:44:37;;;;;;;0.00;0.00;;;13.30;99.90;;;;;;5028928;28;20199;-82
2022/03/09 12:47:06;;;;;;;0.10;0.10;;;13.40;99.90;;;;;;5027099;28;20275;-82
2022/03/09 12:49:38;;;;;;;0.10;0.10;;;13.50;99.90;;;;;;5031064;28;20289;-82
2022/03/09 12:52:08;;;;;;;0.10;0.10;;;13.50;99.90;;;;;;5023811;28;20199;-82
2022/03/09 12:54:41;;;;;;;0.00;0.00;;;13.60;99.90;;;;;;5029545;28;20219;-82
2022/03/09 12:57:14;;;;;;;0.10;0.10;;;13.40;99.90;;;;;;5023810;28;20257;-82
2022/03/09 12:59:43;;;;;;;0.10;0.10;;;13.70;99.90;;;;;;5027361;28;20226;-82
2022/03/09 13:02:10;;;;;;;0.10;0.10;;;13.60;99.90;;;;;;5027287;28;20200;-82
2022/03/09 13:04:37;;;;;;;0.10;0.10;;;13.50;99.90;;;;;;5044365;28;20302;-82
2022/03/09 13:07:13;;;;;;;0.10;0.10;;;13.60;99.90;;;;;;5027720;28;20209;-81
2022/03/09 13:09:44;;;;;;;0.10;0.10;;;13.40;99.90;;;;;;5027143;28;20202;-83
2022/03/09 13:12:14;;;;;;;0.03;0.03;;;13.30;99.90;;;;;;5022193;28;20203;-82
2022/03/09 13:14:43;;;;;;;0.10;0.10;;;13.10;99.90;;;;;;5045606;28;20223;-83
2022/03/09 13:17:11;;;;;;;0.10;0.10;;;12.70;99.90;;;;;;5024110;28;20207;-82
2022/03/09 13:19:40;;;;;;;0.10;0.10;;;12.40;99.90;;;;;;5027301;28;20208;-82
2022/03/09 13:22:08;;;;;;;0.10;0.10;;;12.20;99.90;;;;;;5041152;28;20230;-82
2022/03/09 13:24:35;;;;;;;0.10;0.10;;;12.10;99.90;;;;;;5044860;28;20315;-83
2022/03/09 13:27:18;;;;;;;0.03;0.03;;;12.00;99.90;;;;;;5043816;28;20202;-82
2022/03/09 13:29:46;;;;;;;0.00;0.00;;;12.10;99.90;;;;;;5042724;28;20580;-82
2022/03/09 13:32:29;;;;;;;0.10;0.10;;;12.20;99.90;;;;;;5024881;28;20218;-82
2022/03/09 13:34:57;;;;;;;0.10;0.10;;;12.20;99.90;;;;;;5028026;28;20230;-82
2022/03/09 13:37:34;;;;;;;0.10;0.10;;;12.20;99.90;;;;;;5027921;28;20214;-82